Canyon, MN

11:11 PM CDT on September 02, 2014 (GMT -0500)
KMNDULUT16 | Change Station
CLOSE
Current Station
Personal Weather Station
Location: Canosia twp, Duluth, MN
Elevation: 1438 ft
Nearby Weather Stations

Elev 1438 ft 46.86 °N, 92.27 °W | Updated 4 seconds ago

Partly Cloudy
Partly Cloudy
57.6 °F
Feels Like 57.6 °F
N
1.6
Wind Variable Wind from East
Gusts 1.6 mph

Today
High -- | Low -- °F
--% Chance of Precip.
Yesterday
High -- | Low -- °F
Precip. -- in
6:30 AM 7:47 PM
First Quarter, 58% visible
Pressure 29.81 in
Visibility 10.0 miles
Clouds Few 9000 ft
Dew Point 56 °F
Humidity 95%
Rainfall 0.00 in
Snow Depth Not available.
UV 0 out of 12
Pollen 6.60 out of 12
Air Quality Not available.
Flu Activity Not available.
METAR KDLH 030355Z 20006KT 10SM FEW090 15/11 A2982 RMK AO2 SLP095 OCNL LTG DSNT NW-N T01500111

More Conditions Fewer Conditions

Pressure 29.81 in
Visibility 10.0 miles
Clouds Few 9000 ft
Dew Point 56 °F
Humidity 95%
Rainfall 0.00 in
Snow Depth Not available.
UV 0 out of 12
Pollen 6.60 out of 12
Air Quality Not available.
Flu Activity Not available.
METAR KDLH 030355Z 20006KT 10SM FEW090 15/11 A2982 RMK AO2 SLP095 OCNL LTG DSNT NW-N T01500111

More Conditions Fewer Conditions

10-Day Weather Forecast

Almanac

Astronomy

Sep. 02, 2014 Rise Set
Actual Time 6:30 AM CDT 7:47 PM CDT
Civil Twilight 5:59 AM CDT 8:19 PM CDT
Nautical Twilight 5:20 AM CDT 8:56 PM CDT
Astronomical Twilight 4:40 AM CDT 9:37 PM CDT
Moon 2:43 PM CDT (9/2) No Moon Set
Length of Visible Light 14h 20m
Length of Day
13h 17m
Tomorrow will be 3m 15s shorter.
First Quarter, 58% of the Moon is Illuminated
Sep 3
First Quarter
Sep 8
Full
Sep 15
Last Quarter
Sep 24
New
Oct 1
First Quarter

Today's Extremes

State Highs State Lows

Community

WunderPhotos

Upload Photos

1,749,868 photos uploaded!

Nearby

Snow Depth

Station Depth Elevation
No new snow has been reported.

Earthquake Activity

City Distance Mag. Time & Date
No recent earthquake activity has been reported nearby.
Minimum magnitude displayed is 2.5.

Coastal Water Temperatures

Place Temperature
Duluth, MN 64.9 °F

Nearby Weather Stations